Menu       Strona główna   X °C

Select another period ( hide this area )

Units Period Custom range Directly to
Metric English Both
Daily Weekly Monthly Yearly
use both date-selectors for a custom range
previous Day
With this date
Daily Summary for Tuesday 23 July 2024
Time Temp. ( °F ) Dew pt. ( °F ) Wind ( mph ) From Gust ( mph ) Pressure ( in ) Humid.( % ) Rainrate ( in )
High84.6 65.5 3.1 West ( 20/34 ) 3.7 29.74 53 -
Average82.2 59.2 0.9 Calm #11/25 2.0 29.74 46 -
Low79.9 55.6 -   0.0 29.73 42 -
Daily Tabular details for Tuesday 23 July 2024
Time Temp. ( °F ) Dew pt. ( °F ) Wind ( mph ) From Gust ( mph ) Pressure ( in ) Humid.( % ) Rainrate ( in )
00:02 84.0 61.0   Calm 1.9 29.73 46 -
00:07 84.0 61.7 3.1 West 3.1 29.73 47 -
00:12 84.6 65.5 1.9 NNW 3.1 29.73 53 -
00:17 84.6 64.4 0.6 NNW 3.1 29.73 51 -
00:22 84.0 62.8   Calm   29.73 49 -
00:27 83.8 62.1   Calm   29.74 48 -
00:32 83.5 61.2   Calm   29.74 47 -
00:37 83.1 59.5   Calm   29.74 45 -
00:42 82.8 58.6 1.9 NW 3.1 29.74 44 -
00:47 82.2 58.1 1.9 WNW 1.9 29.74 44 -
00:52 81.9 57.7 1.9 WNW 1.9 29.74 44 -
00:57 81.3 57.4 0.6 West 3.1 29.74 44 -
01:02 80.8 56.1 0.6 West 1.9 29.73 43 -
01:07 80.8 56.1 1.9 West 1.9 29.73 43 -
01:12 80.8 55.6   Calm 1.9 29.73 42 -
01:17 81.0 57.0 0.6 West 1.9 29.74 44 -
01:22 81.5 58.6 1.9 West 3.1 29.74 46 -
01:27 82.0 61.0 0.6 WNW 3.7 29.74 49 -
01:32 82.0 59.2   Calm 1.9 29.73 46 -
01:37 81.9 59.0   Calm 1.2 29.73 46 -
01:42 81.7 58.3 1.9 West 3.1 29.73 45 -
01:47 81.0 57.0 1.9 West 3.1 29.73 44 -
01:52 80.2 57.0   Calm 3.1 29.73 45 -
01:57 80.1 56.8   Calm 1.9 29.73 45 -
02:07 79.9 56.7   Calm   29.73 45 -

Download your copy of this data-set  from WeatherUnderground

Our weather-data as stored at Weather Underground